Aérodrome :
LOGIN :

S'inscrire | Disclaimer

   EN    FR    IT 

 










Légende :    VFR   VFR Marginal   IFR   IFR Intensif   IFR Très Intensif
Visi : 
Plafond : 
>= 8 km
>= 3000ft
5 à 8 km
1000 à 3000 ft
1500m à 5 km
500 à 1000 ft
800 à 1500m
200 à 500 ft
< 800m
< 200 ft
Symboles :   Orages  Brouillard  Fortes neiges  Fortes précipitations  Vent > 20 kt
SIGMETs :   Divers  Orages  Givrage  Turbulence  Onde Orograph.  Cendres Volcan.







- Altitude de l'aérodrome : 1585 ft
- Code IATA : SIR


LSGS - Sion

DERNIER METAR :
  • 290350Z AUTO 09003KT 050V120 CAVOK 16/10 Q1019

METARs EXPIRÉS :
  • 290320Z AUTO 10002KT CAVOK 16/10 Q1019
  • 290250Z AUTO 00000KT CAVOK 17/10 Q1019
  • 290220Z AUTO VRB02KT CAVOK 17/10 Q1019
  • 290150Z AUTO 10003KT CAVOK 18/10 Q1019
  • 290120Z AUTO VRB02KT CAVOK 18/10 Q1019
  • 290050Z AUTO 07003KT 010V120 CAVOK 18/11 Q1019

TAF TAF LSGS
Valide du 29 à 03h jusqu'au 29 à 12h UTC


290225Z 2903/2912 VRB03KT CAVOK
BECMG 2910/2912 25010KT
Pas de NOTAMs connus pour ce terrain.



MET'MAP, la Météo Aéronautique d'un coup d'oeil ! - Copyright ORBIFLY Décembre 2007 - Disclaimer

ORBIFLY MET'MAP TEAM :

Programmation & Développement : Alexandra Zaïnal
Conception & Développement : Baudouin d'Aumeries
Co-Programmation & Développement : Marc-Olivier Méhu
Soutien technique & logistique : Manuel Goepfert

Contact : metmap@orbifly.com




SOURCES & CREDITS :

   NOAA